sensor_id;sensor_type;location;lat;lon;timestamp;P1;durP1;ratioP1;P2;durP2;ratioP2
23155;SDS011;11746;50.876;4.246;2023-04-12T00:01:35;3.42;;;0.77;;
23155;SDS011;11746;50.876;4.246;2023-04-12T00:04:01;3.13;;;0.70;;
23155;SDS011;11746;50.876;4.246;2023-04-12T00:06:32;3.13;;;0.80;;
23155;SDS011;11746;50.876;4.246;2023-04-12T00:08:59;3.03;;;0.70;;
23155;SDS011;11746;50.876;4.246;2023-04-12T00:11:26;3.55;;;0.77;;
23155;SDS011;11746;50.876;4.246;2023-04-12T00:13:53;2.42;;;0.70;;
23155;SDS011;11746;50.876;4.246;2023-04-12T00:16:19;3.33;;;0.80;;
23155;SDS011;11746;50.876;4.246;2023-04-12T00:18:45;3.00;;;0.68;;
23155;SDS011;11746;50.876;4.246;2023-04-12T00:21:11;2.05;;;0.80;;
23155;SDS011;11746;50.876;4.246;2023-04-12T00:23:37;3.70;;;0.75;;
23155;SDS011;11746;50.876;4.246;2023-04-12T00:26:03;2.08;;;0.65;;
23155;SDS011;11746;50.876;4.246;2023-04-12T00:28:30;3.55;;;1.00;;
23155;SDS011;11746;50.876;4.246;2023-04-12T00:30:55;3.92;;;0.88;;
23155;SDS011;11746;50.876;4.246;2023-04-12T00:33:21;3.60;;;1.13;;
23155;SDS011;11746;50.876;4.246;2023-04-12T00:35:47;2.47;;;0.70;;
23155;SDS011;11746;50.876;4.246;2023-04-12T00:38:13;4.35;;;0.90;;
23155;SDS011;11746;50.876;4.246;2023-04-12T00:40:40;2.08;;;0.70;;
23155;SDS011;11746;50.876;4.246;2023-04-12T00:43:07;3.15;;;0.82;;
23155;SDS011;11746;50.876;4.246;2023-04-12T00:45:34;8.05;;;1.20;;
23155;SDS011;11746;50.876;4.246;2023-04-12T00:48:02;3.08;;;1.05;;
23155;SDS011;11746;50.876;4.246;2023-04-12T00:50:29;3.67;;;0.90;;
23155;SDS011;11746;50.876;4.246;2023-04-12T00:52:56;3.67;;;0.90;;
23155;SDS011;11746;50.876;4.246;2023-04-12T00:55:22;2.20;;;0.80;;
23155;SDS011;11746;50.876;4.246;2023-04-12T00:57:49;2.72;;;0.90;;
23155;SDS011;11746;50.876;4.246;2023-04-12T01:00:16;6.78;;;1.27;;
23155;SDS011;11746;50.876;4.246;2023-04-12T01:02:43;2.92;;;0.88;;
23155;SDS011;11746;50.876;4.246;2023-04-12T01:05:18;6.30;;;1.27;;
23155;SDS011;11746;50.876;4.246;2023-04-12T01:07:50;3.97;;;1.20;;
23155;SDS011;11746;50.876;4.246;2023-04-12T01:10:40;3.95;;;0.90;;
23155;SDS011;11746;50.876;4.246;2023-04-12T01:15:57;4.07;;;1.00;;
23155;SDS011;11746;50.876;4.246;2023-04-12T01:18:29;3.78;;;1.15;;
23155;SDS011;11746;50.876;4.246;2023-04-12T01:21:05;4.30;;;1.08;;
23155;SDS011;11746;50.876;4.246;2023-04-12T01:23:42;4.07;;;0.95;;
23155;SDS011;11746;50.876;4.246;2023-04-12T01:26:33;6.60;;;1.33;;
23155;SDS011;11746;50.876;4.246;2023-04-12T01:29:09;5.13;;;1.10;;
23155;SDS011;11746;50.876;4.246;2023-04-12T01:31:41;4.82;;;0.95;;
23155;SDS011;11746;50.876;4.246;2023-04-12T01:34:17;3.70;;;1.00;;
23155;SDS011;11746;50.876;4.246;2023-04-12T01:36:46;3.88;;;1.00;;
23155;SDS011;11746;50.876;4.246;2023-04-12T01:39:12;4.28;;;1.08;;
23155;SDS011;11746;50.876;4.246;2023-04-12T01:41:39;4.90;;;1.10;;
23155;SDS011;11746;50.876;4.246;2023-04-12T01:44:11;4.63;;;1.20;;
23155;SDS011;11746;50.876;4.246;2023-04-12T01:46:38;5.97;;;1.20;;
23155;SDS011;11746;50.876;4.246;2023-04-12T01:49:04;3.17;;;1.02;;
23155;SDS011;11746;50.876;4.246;2023-04-12T01:54:39;4.45;;;1.33;;
23155;SDS011;11746;50.876;4.246;2023-04-12T01:57:07;2.65;;;1.00;;
23155;SDS011;11746;50.876;4.246;2023-04-12T01:59:35;4.43;;;1.00;;
23155;SDS011;11746;50.876;4.246;2023-04-12T02:02:04;2.55;;;0.60;;
23155;SDS011;11746;50.876;4.246;2023-04-12T02:04:32;2.45;;;0.82;;
23155;SDS011;11746;50.876;4.246;2023-04-12T02:07:00;4.18;;;1.10;;
23155;SDS011;11746;50.876;4.246;2023-04-12T02:09:26;2.45;;;0.80;;
23155;SDS011;11746;50.876;4.246;2023-04-12T02:11:52;4.43;;;0.90;;
23155;SDS011;11746;50.876;4.246;2023-04-12T02:14:18;4.10;;;0.75;;
23155;SDS011;11746;50.876;4.246;2023-04-12T02:16:44;3.72;;;1.00;;
23155;SDS011;11746;50.876;4.246;2023-04-12T02:19:11;2.88;;;0.80;;
23155;SDS011;11746;50.876;4.246;2023-04-12T02:21:40;2.03;;;0.68;;
23155;SDS011;11746;50.876;4.246;2023-04-12T02:24:08;2.00;;;0.73;;
23155;SDS011;11746;50.876;4.246;2023-04-12T02:26:35;2.55;;;0.80;;
23155;SDS011;11746;50.876;4.246;2023-04-12T02:29:05;2.80;;;1.00;;
23155;SDS011;11746;50.876;4.246;2023-04-12T02:31:34;4.28;;;0.88;;
23155;SDS011;11746;50.876;4.246;2023-04-12T02:34:02;2.00;;;0.75;;
23155;SDS011;11746;50.876;4.246;2023-04-12T02:36:29;3.03;;;0.80;;
23155;SDS011;11746;50.876;4.246;2023-04-12T02:38:55;2.40;;;0.75;;
23155;SDS011;11746;50.876;4.246;2023-04-12T02:41:21;4.15;;;1.15;;
23155;SDS011;11746;50.876;4.246;2023-04-12T02:43:48;3.55;;;0.90;;
23155;SDS011;11746;50.876;4.246;2023-04-12T02:46:17;4.85;;;0.88;;
23155;SDS011;11746;50.876;4.246;2023-04-12T02:48:47;1.77;;;0.65;;
23155;SDS011;11746;50.876;4.246;2023-04-12T02:51:13;2.17;;;0.90;;
23155;SDS011;11746;50.876;4.246;2023-04-12T02:53:39;1.25;;;0.60;;
23155;SDS011;11746;50.876;4.246;2023-04-12T02:56:06;3.90;;;1.00;;
23155;SDS011;11746;50.876;4.246;2023-04-12T02:58:35;2.80;;;0.80;;
23155;SDS011;11746;50.876;4.246;2023-04-12T03:01:01;3.92;;;0.63;;
23155;SDS011;11746;50.876;4.246;2023-04-12T03:03:31;1.98;;;0.80;;
23155;SDS011;11746;50.876;4.246;2023-04-12T03:05:58;3.25;;;0.93;;
23155;SDS011;11746;50.876;4.246;2023-04-12T03:08:25;3.25;;;0.85;;
23155;SDS011;11746;50.876;4.246;2023-04-12T03:10:51;3.80;;;0.80;;
23155;SDS011;11746;50.876;4.246;2023-04-12T03:13:17;1.95;;;0.70;;
23155;SDS011;11746;50.876;4.246;2023-04-12T03:15:43;2.30;;;0.65;;
23155;SDS011;11746;50.876;4.246;2023-04-12T03:18:10;2.53;;;0.65;;
23155;SDS011;11746;50.876;4.246;2023-04-12T03:20:36;1.65;;;1.00;;
23155;SDS011;11746;50.876;4.246;2023-04-12T03:23:05;1.77;;;0.70;;
23155;SDS011;11746;50.876;4.246;2023-04-12T03:25:31;1.50;;;0.57;;
23155;SDS011;11746;50.876;4.246;2023-04-12T03:27:57;1.45;;;0.85;;
23155;SDS011;11746;50.876;4.246;2023-04-12T03:30:23;1.42;;;0.70;;
23155;SDS011;11746;50.876;4.246;2023-04-12T03:32:49;0.90;;;0.47;;
23155;SDS011;11746;50.876;4.246;2023-04-12T03:35:15;1.50;;;0.70;;
23155;SDS011;11746;50.876;4.246;2023-04-12T03:37:41;1.27;;;0.60;;
23155;SDS011;11746;50.876;4.246;2023-04-12T03:40:07;1.98;;;0.68;;
23155;SDS011;11746;50.876;4.246;2023-04-12T03:42:37;3.55;;;0.80;;
23155;SDS011;11746;50.876;4.246;2023-04-12T03:45:03;1.55;;;0.60;;
23155;SDS011;11746;50.876;4.246;2023-04-12T03:47:29;1.95;;;0.63;;
23155;SDS011;11746;50.876;4.246;2023-04-12T03:49:55;2.17;;;0.70;;
23155;SDS011;11746;50.876;4.246;2023-04-12T03:52:26;1.98;;;0.70;;
23155;SDS011;11746;50.876;4.246;2023-04-12T03:54:52;3.47;;;0.60;;
23155;SDS011;11746;50.876;4.246;2023-04-12T03:57:18;1.70;;;0.50;;
23155;SDS011;11746;50.876;4.246;2023-04-12T03:59:48;1.60;;;0.50;;
23155;SDS011;11746;50.876;4.246;2023-04-12T04:02:16;0.65;;;0.50;;
23155;SDS011;11746;50.876;4.246;2023-04-12T04:04:42;3.03;;;0.85;;
23155;SDS011;11746;50.876;4.246;2023-04-12T04:07:09;2.00;;;0.57;;
23155;SDS011;11746;50.876;4.246;2023-04-12T04:09:35;1.15;;;0.40;;
23155;SDS011;11746;50.876;4.246;2023-04-12T04:12:01;2.85;;;0.70;;
23155;SDS011;11746;50.876;4.246;2023-04-12T04:14:27;2.58;;;0.60;;
23155;SDS011;11746;50.876;4.246;2023-04-12T04:16:53;1.75;;;0.70;;
23155;SDS011;11746;50.876;4.246;2023-04-12T04:19:19;1.17;;;0.43;;
23155;SDS011;11746;50.876;4.246;2023-04-12T04:21:46;0.90;;;0.47;;
23155;SDS011;11746;50.876;4.246;2023-04-12T04:24:14;2.22;;;0.70;;
23155;SDS011;11746;50.876;4.246;2023-04-12T04:26:42;2.15;;;0.70;;
23155;SDS011;11746;50.876;4.246;2023-04-12T04:29:09;1.25;;;0.50;;
23155;SDS011;11746;50.876;4.246;2023-04-12T04:31:36;1.80;;;0.80;;
23155;SDS011;11746;50.876;4.246;2023-04-12T04:34:02;1.45;;;0.50;;
23155;SDS011;11746;50.876;4.246;2023-04-12T04:36:31;2.60;;;0.98;;
23155;SDS011;11746;50.876;4.246;2023-04-12T04:39:00;0.80;;;0.50;;
23155;SDS011;11746;50.876;4.246;2023-04-12T04:41:26;0.63;;;0.40;;
23155;SDS011;11746;50.876;4.246;2023-04-12T04:43:52;1.48;;;0.70;;
23155;SDS011;11746;50.876;4.246;2023-04-12T04:46:18;2.95;;;0.80;;
23155;SDS011;11746;50.876;4.246;2023-04-12T04:48:49;2.38;;;0.73;;
23155;SDS011;11746;50.876;4.246;2023-04-12T04:51:19;2.60;;;0.70;;
23155;SDS011;11746;50.876;4.246;2023-04-12T04:53:45;1.27;;;0.80;;
23155;SDS011;11746;50.876;4.246;2023-04-12T04:56:11;1.27;;;0.85;;
23155;SDS011;11746;50.876;4.246;2023-04-12T04:58:37;2.05;;;0.70;;
23155;SDS011;11746;50.876;4.246;2023-04-12T05:01:03;3.22;;;0.93;;
23155;SDS011;11746;50.876;4.246;2023-04-12T05:03:29;2.13;;;0.93;;
23155;SDS011;11746;50.876;4.246;2023-04-12T05:05:58;2.70;;;1.17;;
23155;SDS011;11746;50.876;4.246;2023-04-12T05:08:25;1.48;;;0.60;;
23155;SDS011;11746;50.876;4.246;2023-04-12T05:10:53;3.63;;;0.80;;
23155;SDS011;11746;50.876;4.246;2023-04-12T05:13:20;2.35;;;0.75;;
23155;SDS011;11746;50.876;4.246;2023-04-12T05:15:47;2.45;;;0.88;;
23155;SDS011;11746;50.876;4.246;2023-04-12T05:18:14;2.80;;;0.80;;
23155;SDS011;11746;50.876;4.246;2023-04-12T05:20:41;2.65;;;0.80;;
23155;SDS011;11746;50.876;4.246;2023-04-12T05:23:07;5.10;;;1.10;;
23155;SDS011;11746;50.876;4.246;2023-04-12T05:25:33;3.03;;;1.10;;
23155;SDS011;11746;50.876;4.246;2023-04-12T05:27:59;2.95;;;1.30;;
23155;SDS011;11746;50.876;4.246;2023-04-12T05:30:25;3.38;;;1.27;;
23155;SDS011;11746;50.876;4.246;2023-04-12T05:32:51;6.10;;;1.30;;
23155;SDS011;11746;50.876;4.246;2023-04-12T05:35:17;6.45;;;1.30;;
23155;SDS011;11746;50.876;4.246;2023-04-12T05:37:43;6.45;;;1.80;;
23155;SDS011;11746;50.876;4.246;2023-04-12T05:40:09;7.22;;;1.60;;
23155;SDS011;11746;50.876;4.246;2023-04-12T05:42:35;4.00;;;1.63;;
23155;SDS011;11746;50.876;4.246;2023-04-12T05:45:01;4.68;;;1.30;;
23155;SDS011;11746;50.876;4.246;2023-04-12T05:47:28;4.85;;;1.50;;
23155;SDS011;11746;50.876;4.246;2023-04-12T05:49:54;5.43;;;1.33;;
23155;SDS011;11746;50.876;4.246;2023-04-12T05:52:20;7.50;;;1.90;;
23155;SDS011;11746;50.876;4.246;2023-04-12T05:54:46;7.10;;;1.50;;
23155;SDS011;11746;50.876;4.246;2023-04-12T05:57:12;7.60;;;1.65;;
23155;SDS011;11746;50.876;4.246;2023-04-12T05:59:39;6.30;;;1.60;;
23155;SDS011;11746;50.876;4.246;2023-04-12T06:02:05;7.10;;;1.25;;
23155;SDS011;11746;50.876;4.246;2023-04-12T06:04:33;5.88;;;1.35;;
23155;SDS011;11746;50.876;4.246;2023-04-12T06:06:59;7.72;;;1.52;;
23155;SDS011;11746;50.876;4.246;2023-04-12T06:09:25;5.90;;;1.50;;
23155;SDS011;11746;50.876;4.246;2023-04-12T06:11:51;5.03;;;1.20;;
23155;SDS011;11746;50.876;4.246;2023-04-12T06:14:17;6.88;;;1.60;;
23155;SDS011;11746;50.876;4.246;2023-04-12T06:16:43;6.13;;;1.50;;
23155;SDS011;11746;50.876;4.246;2023-04-12T06:19:09;6.38;;;1.60;;
23155;SDS011;11746;50.876;4.246;2023-04-12T06:21:36;5.65;;;1.60;;
23155;SDS011;11746;50.876;4.246;2023-04-12T06:24:01;7.82;;;1.50;;
23155;SDS011;11746;50.876;4.246;2023-04-12T06:26:27;6.03;;;1.48;;
23155;SDS011;11746;50.876;4.246;2023-04-12T06:28:54;5.90;;;1.55;;
23155;SDS011;11746;50.876;4.246;2023-04-12T06:31:20;6.35;;;1.60;;
23155;SDS011;11746;50.876;4.246;2023-04-12T06:33:47;6.28;;;1.55;;
23155;SDS011;11746;50.876;4.246;2023-04-12T06:36:14;9.23;;;1.83;;
23155;SDS011;11746;50.876;4.246;2023-04-12T06:38:40;7.10;;;1.30;;
23155;SDS011;11746;50.876;4.246;2023-04-12T06:41:06;8.23;;;1.77;;
23155;SDS011;11746;50.876;4.246;2023-04-12T06:43:32;6.10;;;1.30;;
23155;SDS011;11746;50.876;4.246;2023-04-12T06:45:58;6.35;;;1.50;;
23155;SDS011;11746;50.876;4.246;2023-04-12T06:48:27;6.72;;;1.38;;
23155;SDS011;11746;50.876;4.246;2023-04-12T06:50:53;7.47;;;1.70;;
23155;SDS011;11746;50.876;4.246;2023-04-12T06:53:20;7.18;;;1.58;;
23155;SDS011;11746;50.876;4.246;2023-04-12T06:55:45;10.20;;;2.50;;
23155;SDS011;11746;50.876;4.246;2023-04-12T06:58:12;12.38;;;2.53;;
23155;SDS011;11746;50.876;4.246;2023-04-12T07:00:37;11.88;;;2.88;;
23155;SDS011;11746;50.876;4.246;2023-04-12T07:03:03;8.88;;;3.00;;
23155;SDS011;11746;50.876;4.246;2023-04-12T07:05:29;8.20;;;2.72;;
23155;SDS011;11746;50.876;4.246;2023-04-12T07:07:55;12.02;;;3.10;;
23155;SDS011;11746;50.876;4.246;2023-04-12T07:10:21;9.90;;;2.72;;
23155;SDS011;11746;50.876;4.246;2023-04-12T07:12:48;9.50;;;2.10;;
23155;SDS011;11746;50.876;4.246;2023-04-12T07:15:13;8.75;;;2.53;;
23155;SDS011;11746;50.876;4.246;2023-04-12T07:17:39;5.18;;;1.52;;
23155;SDS011;11746;50.876;4.246;2023-04-12T07:20:05;9.65;;;1.80;;
23155;SDS011;11746;50.876;4.246;2023-04-12T07:22:32;5.90;;;1.90;;
23155;SDS011;11746;50.876;4.246;2023-04-12T07:24:57;9.57;;;2.00;;
23155;SDS011;11746;50.876;4.246;2023-04-12T07:27:23;9.65;;;1.48;;
23155;SDS011;11746;50.876;4.246;2023-04-12T07:29:50;8.75;;;1.52;;
23155;SDS011;11746;50.876;4.246;2023-04-12T07:32:17;9.15;;;1.48;;
23155;SDS011;11746;50.876;4.246;2023-04-12T07:34:43;7.63;;;1.52;;
23155;SDS011;11746;50.876;4.246;2023-04-12T07:37:12;6.47;;;1.50;;
23155;SDS011;11746;50.876;4.246;2023-04-12T07:39:38;6.18;;;1.05;;
23155;SDS011;11746;50.876;4.246;2023-04-12T07:42:05;8.02;;;1.42;;
23155;SDS011;11746;50.876;4.246;2023-04-12T07:44:31;9.27;;;1.67;;
23155;SDS011;11746;50.876;4.246;2023-04-12T07:46:58;10.93;;;1.67;;
23155;SDS011;11746;50.876;4.246;2023-04-12T07:49:23;10.23;;;1.48;;
23155;SDS011;11746;50.876;4.246;2023-04-12T07:51:49;12.07;;;2.20;;
23155;SDS011;11746;50.876;4.246;2023-04-12T07:54:15;6.72;;;1.50;;
23155;SDS011;11746;50.876;4.246;2023-04-12T07:56:55;10.00;;;1.77;;
23155;SDS011;11746;50.876;4.246;2023-04-12T07:59:24;5.85;;;1.48;;
23155;SDS011;11746;50.876;4.246;2023-04-12T08:01:50;17.33;;;2.28;;
23155;SDS011;11746;50.876;4.246;2023-04-12T08:04:16;6.93;;;1.60;;
23155;SDS011;11746;50.876;4.246;2023-04-12T08:06:42;11.13;;;1.63;;
23155;SDS011;11746;50.876;4.246;2023-04-12T08:09:08;10.45;;;1.70;;
23155;SDS011;11746;50.876;4.246;2023-04-12T08:11:34;9.27;;;1.50;;
23155;SDS011;11746;50.876;4.246;2023-04-12T08:14:00;9.35;;;1.48;;
23155;SDS011;11746;50.876;4.246;2023-04-12T08:16:26;10.68;;;1.48;;
23155;SDS011;11746;50.876;4.246;2023-04-12T08:18:52;7.65;;;1.48;;
23155;SDS011;11746;50.876;4.246;2023-04-12T08:21:18;10.40;;;2.05;;
23155;SDS011;11746;50.876;4.246;2023-04-12T08:23:44;12.73;;;2.13;;
23155;SDS011;11746;50.876;4.246;2023-04-12T08:26:10;8.32;;;1.50;;
23155;SDS011;11746;50.876;4.246;2023-04-12T08:28:36;8.20;;;1.70;;
23155;SDS011;11746;50.876;4.246;2023-04-12T08:31:02;8.98;;;1.80;;
23155;SDS011;11746;50.876;4.246;2023-04-12T08:33:28;10.60;;;1.83;;
23155;SDS011;11746;50.876;4.246;2023-04-12T08:35:54;9.82;;;1.88;;
23155;SDS011;11746;50.876;4.246;2023-04-12T08:38:20;12.23;;;1.83;;
23155;SDS011;11746;50.876;4.246;2023-04-12T08:40:46;13.13;;;1.95;;
23155;SDS011;11746;50.876;4.246;2023-04-12T08:43:12;10.85;;;2.10;;
23155;SDS011;11746;50.876;4.246;2023-04-12T08:45:41;11.63;;;1.98;;
23155;SDS011;11746;50.876;4.246;2023-04-12T08:48:07;12.70;;;2.35;;
23155;SDS011;11746;50.876;4.246;2023-04-12T08:50:34;14.25;;;2.40;;
23155;SDS011;11746;50.876;4.246;2023-04-12T08:53:00;8.88;;;2.17;;
23155;SDS011;11746;50.876;4.246;2023-04-12T08:55:27;11.27;;;2.10;;
23155;SDS011;11746;50.876;4.246;2023-04-12T08:57:53;14.50;;;2.17;;
23155;SDS011;11746;50.876;4.246;2023-04-12T09:00:20;8.70;;;2.33;;
23155;SDS011;11746;50.876;4.246;2023-04-12T09:02:47;7.00;;;2.00;;
23155;SDS011;11746;50.876;4.246;2023-04-12T09:05:13;9.88;;;1.90;;
23155;SDS011;11746;50.876;4.246;2023-04-12T09:07:40;7.25;;;1.83;;
23155;SDS011;11746;50.876;4.246;2023-04-12T09:10:06;8.65;;;2.03;;
23155;SDS011;11746;50.876;4.246;2023-04-12T09:12:33;5.85;;;1.50;;
23155;SDS011;11746;50.876;4.246;2023-04-12T09:15:08;11.23;;;1.92;;
23155;SDS011;11746;50.876;4.246;2023-04-12T09:17:37;7.55;;;2.05;;
23155;SDS011;11746;50.876;4.246;2023-04-12T09:22:37;9.02;;;1.65;;
23155;SDS011;11746;50.876;4.246;2023-04-12T09:25:08;11.35;;;1.92;;
23155;SDS011;11746;50.876;4.246;2023-04-12T09:27:47;12.35;;;2.00;;
23155;SDS011;11746;50.876;4.246;2023-04-12T09:30:14;6.88;;;1.42;;
23155;SDS011;11746;50.876;4.246;2023-04-12T09:32:41;9.73;;;1.80;;
23155;SDS011;11746;50.876;4.246;2023-04-12T09:35:07;11.18;;;1.70;;
23155;SDS011;11746;50.876;4.246;2023-04-12T09:37:33;11.27;;;2.00;;
23155;SDS011;11746;50.876;4.246;2023-04-12T09:40:00;12.63;;;1.98;;
23155;SDS011;11746;50.876;4.246;2023-04-12T09:42:33;9.35;;;2.00;;
23155;SDS011;11746;50.876;4.246;2023-04-12T09:45:17;10.70;;;2.17;;
23155;SDS011;11746;50.876;4.246;2023-04-12T09:47:48;10.60;;;1.80;;
23155;SDS011;11746;50.876;4.246;2023-04-12T09:52:47;9.75;;;1.50;;
23155;SDS011;11746;50.876;4.246;2023-04-12T09:55:14;5.97;;;1.58;;
23155;SDS011;11746;50.876;4.246;2023-04-12T09:57:42;12.48;;;1.67;;
23155;SDS011;11746;50.876;4.246;2023-04-12T10:00:09;7.18;;;1.75;;
23155;SDS011;11746;50.876;4.246;2023-04-12T10:02:41;9.30;;;1.80;;
23155;SDS011;11746;50.876;4.246;2023-04-12T10:05:09;9.57;;;1.77;;
23155;SDS011;11746;50.876;4.246;2023-04-12T10:07:39;8.00;;;1.52;;
23155;SDS011;11746;50.876;4.246;2023-04-12T10:10:08;10.85;;;1.90;;
23155;SDS011;11746;50.876;4.246;2023-04-12T10:12:36;6.35;;;1.20;;
23155;SDS011;11746;50.876;4.246;2023-04-12T10:15:07;8.68;;;1.70;;
23155;SDS011;11746;50.876;4.246;2023-04-12T10:20:35;12.60;;;1.40;;
23155;SDS011;11746;50.876;4.246;2023-04-12T10:23:04;11.18;;;1.73;;
23155;SDS011;11746;50.876;4.246;2023-04-12T10:25:30;7.95;;;1.98;;
23155;SDS011;11746;50.876;4.246;2023-04-12T10:27:58;9.20;;;2.05;;
23155;SDS011;11746;50.876;4.246;2023-04-12T10:30:38;6.93;;;1.90;;
23155;SDS011;11746;50.876;4.246;2023-04-12T10:35:49;10.93;;;1.85;;
23155;SDS011;11746;50.876;4.246;2023-04-12T10:38:15;11.80;;;2.22;;
23155;SDS011;11746;50.876;4.246;2023-04-12T10:41:27;11.85;;;2.05;;
23155;SDS011;11746;50.876;4.246;2023-04-12T10:43:31;14.00;;;2.33;;
23155;SDS011;11746;50.876;4.246;2023-04-12T10:45:57;12.05;;;2.70;;
23155;SDS011;11746;50.876;4.246;2023-04-12T10:53:51;9.60;;;2.30;;
23155;SDS011;11746;50.876;4.246;2023-04-12T10:58:56;8.50;;;2.00;;
23155;SDS011;11746;50.876;4.246;2023-04-12T11:01:26;11.93;;;2.42;;
23155;SDS011;11746;50.876;4.246;2023-04-12T11:04:13;11.27;;;1.73;;
23155;SDS011;11746;50.876;4.246;2023-04-12T11:06:48;7.75;;;1.42;;
23155;SDS011;11746;50.876;4.246;2023-04-12T11:09:24;11.45;;;2.22;;
23155;SDS011;11746;50.876;4.246;2023-04-12T11:14:33;7.78;;;1.85;;
23155;SDS011;11746;50.876;4.246;2023-04-12T11:19:38;8.80;;;1.48;;
23155;SDS011;11746;50.876;4.246;2023-04-12T11:22:06;6.82;;;1.08;;
23155;SDS011;11746;50.876;4.246;2023-04-12T11:24:36;6.65;;;1.63;;
23155;SDS011;11746;50.876;4.246;2023-04-12T11:27:03;6.85;;;1.27;;
23155;SDS011;11746;50.876;4.246;2023-04-12T11:29:29;6.63;;;1.33;;
23155;SDS011;11746;50.876;4.246;2023-04-12T11:31:56;4.70;;;1.20;;
23155;SDS011;11746;50.876;4.246;2023-04-12T11:34:22;3.45;;;0.95;;
23155;SDS011;11746;50.876;4.246;2023-04-12T11:36:52;8.27;;;1.08;;
23155;SDS011;11746;50.876;4.246;2023-04-12T11:39:19;8.85;;;1.25;;
23155;SDS011;11746;50.876;4.246;2023-04-12T11:41:46;3.45;;;0.88;;
23155;SDS011;11746;50.876;4.246;2023-04-12T11:44:13;5.63;;;0.85;;
23155;SDS011;11746;50.876;4.246;2023-04-12T11:46:43;6.22;;;1.08;;
23155;SDS011;11746;50.876;4.246;2023-04-12T11:49:13;5.13;;;0.95;;
23155;SDS011;11746;50.876;4.246;2023-04-12T11:51:43;5.47;;;1.17;;
23155;SDS011;11746;50.876;4.246;2023-04-12T11:54:10;5.43;;;1.13;;
23155;SDS011;11746;50.876;4.246;2023-04-12T11:56:37;8.98;;;1.55;;
23155;SDS011;11746;50.876;4.246;2023-04-12T11:59:03;4.28;;;0.80;;
23155;SDS011;11746;50.876;4.246;2023-04-12T12:01:29;4.95;;;1.33;;
23155;SDS011;11746;50.876;4.246;2023-04-12T12:03:58;6.30;;;1.00;;
23155;SDS011;11746;50.876;4.246;2023-04-12T12:06:25;5.35;;;1.40;;
23155;SDS011;11746;50.876;4.246;2023-04-12T12:08:53;5.78;;;1.02;;
23155;SDS011;11746;50.876;4.246;2023-04-12T12:11:23;4.70;;;0.80;;
23155;SDS011;11746;50.876;4.246;2023-04-12T12:13:54;2.45;;;0.82;;
23155;SDS011;11746;50.876;4.246;2023-04-12T12:16:27;4.57;;;1.10;;
23155;SDS011;11746;50.876;4.246;2023-04-12T12:18:54;5.03;;;1.20;;
23155;SDS011;11746;50.876;4.246;2023-04-12T12:21:22;3.55;;;0.90;;
23155;SDS011;11746;50.876;4.246;2023-04-12T12:23:50;10.32;;;1.38;;
23155;SDS011;11746;50.876;4.246;2023-04-12T12:26:23;7.20;;;1.20;;
23155;SDS011;11746;50.876;4.246;2023-04-12T12:28:50;5.50;;;1.10;;
23155;SDS011;11746;50.876;4.246;2023-04-12T12:31:20;4.80;;;1.20;;
23155;SDS011;11746;50.876;4.246;2023-04-12T12:33:48;6.45;;;1.02;;
23155;SDS011;11746;50.876;4.246;2023-04-12T12:36:17;7.15;;;1.38;;
23155;SDS011;11746;50.876;4.246;2023-04-12T12:38:45;5.38;;;1.30;;
23155;SDS011;11746;50.876;4.246;2023-04-12T12:41:15;5.55;;;1.42;;
23155;SDS011;11746;50.876;4.246;2023-04-12T12:43:50;7.27;;;2.00;;
23155;SDS011;11746;50.876;4.246;2023-04-12T12:46:17;5.88;;;1.20;;
23155;SDS011;11746;50.876;4.246;2023-04-12T12:48:44;4.57;;;1.30;;
23155;SDS011;11746;50.876;4.246;2023-04-12T12:51:11;5.07;;;1.25;;
23155;SDS011;11746;50.876;4.246;2023-04-12T12:53:39;5.82;;;1.10;;
23155;SDS011;11746;50.876;4.246;2023-04-12T12:56:06;6.32;;;1.20;;
23155;SDS011;11746;50.876;4.246;2023-04-12T12:58:34;6.45;;;1.40;;
23155;SDS011;11746;50.876;4.246;2023-04-12T13:01:00;7.05;;;1.60;;
23155;SDS011;11746;50.876;4.246;2023-04-12T13:03:28;4.50;;;1.02;;
23155;SDS011;11746;50.876;4.246;2023-04-12T13:05:55;6.03;;;1.40;;
23155;SDS011;11746;50.876;4.246;2023-04-12T13:08:21;4.60;;;1.08;;
23155;SDS011;11746;50.876;4.246;2023-04-12T13:10:50;4.85;;;1.15;;
23155;SDS011;11746;50.876;4.246;2023-04-12T13:13:19;5.15;;;1.20;;
23155;SDS011;11746;50.876;4.246;2023-04-12T13:15:45;7.03;;;1.65;;
23155;SDS011;11746;50.876;4.246;2023-04-12T13:18:12;5.28;;;0.90;;
23155;SDS011;11746;50.876;4.246;2023-04-12T13:20:41;6.75;;;1.13;;
23155;SDS011;11746;50.876;4.246;2023-04-12T13:23:07;7.10;;;1.35;;
23155;SDS011;11746;50.876;4.246;2023-04-12T13:25:33;4.10;;;0.77;;
23155;SDS011;11746;50.876;4.246;2023-04-12T13:27:59;3.53;;;0.70;;
23155;SDS011;11746;50.876;4.246;2023-04-12T13:30:25;4.57;;;0.70;;
23155;SDS011;11746;50.876;4.246;2023-04-12T13:32:52;3.25;;;0.73;;
23155;SDS011;11746;50.876;4.246;2023-04-12T13:35:19;3.10;;;1.10;;
23155;SDS011;11746;50.876;4.246;2023-04-12T13:37:45;5.53;;;1.40;;
23155;SDS011;11746;50.876;4.246;2023-04-12T13:40:11;2.78;;;0.70;;
23155;SDS011;11746;50.876;4.246;2023-04-12T13:42:39;4.70;;;1.23;;
23155;SDS011;11746;50.876;4.246;2023-04-12T13:45:05;2.13;;;0.90;;
23155;SDS011;11746;50.876;4.246;2023-04-12T13:47:32;3.45;;;0.75;;
23155;SDS011;11746;50.876;4.246;2023-04-12T13:50:02;2.40;;;0.80;;
23155;SDS011;11746;50.876;4.246;2023-04-12T13:52:28;2.80;;;1.00;;
23155;SDS011;11746;50.876;4.246;2023-04-12T13:54:54;4.63;;;1.08;;
23155;SDS011;11746;50.876;4.246;2023-04-12T13:57:21;3.95;;;0.80;;
23155;SDS011;11746;50.876;4.246;2023-04-12T13:59:47;3.42;;;0.85;;
23155;SDS011;11746;50.876;4.246;2023-04-12T14:02:12;2.90;;;1.08;;
23155;SDS011;11746;50.876;4.246;2023-04-12T14:04:48;3.38;;;0.60;;
23155;SDS011;11746;50.876;4.246;2023-04-12T14:07:18;4.20;;;0.80;;
23155;SDS011;11746;50.876;4.246;2023-04-12T14:09:44;3.70;;;0.63;;
23155;SDS011;11746;50.876;4.246;2023-04-12T14:12:12;2.05;;;0.55;;
23155;SDS011;11746;50.876;4.246;2023-04-12T14:14:38;4.85;;;0.77;;
23155;SDS011;11746;50.876;4.246;2023-04-12T14:17:04;5.00;;;0.73;;
23155;SDS011;11746;50.876;4.246;2023-04-12T14:19:30;4.43;;;0.93;;
23155;SDS011;11746;50.876;4.246;2023-04-12T14:21:56;4.95;;;0.70;;
23155;SDS011;11746;50.876;4.246;2023-04-12T14:24:22;3.40;;;0.60;;
23155;SDS011;11746;50.876;4.246;2023-04-12T14:26:48;3.47;;;0.95;;
23155;SDS011;11746;50.876;4.246;2023-04-12T14:29:15;6.07;;;0.60;;
23155;SDS011;11746;50.876;4.246;2023-04-12T14:31:41;2.28;;;0.50;;
23155;SDS011;11746;50.876;4.246;2023-04-12T14:34:07;5.57;;;0.63;;
23155;SDS011;11746;50.876;4.246;2023-04-12T14:36:34;4.95;;;0.60;;
23155;SDS011;11746;50.876;4.246;2023-04-12T14:39:00;3.65;;;0.65;;
23155;SDS011;11746;50.876;4.246;2023-04-12T14:41:28;5.65;;;0.73;;
23155;SDS011;11746;50.876;4.246;2023-04-12T14:43:54;4.50;;;0.68;;
23155;SDS011;11746;50.876;4.246;2023-04-12T14:46:21;5.32;;;0.75;;
23155;SDS011;11746;50.876;4.246;2023-04-12T14:48:47;4.28;;;0.60;;
23155;SDS011;11746;50.876;4.246;2023-04-12T14:51:13;3.22;;;1.00;;
23155;SDS011;11746;50.876;4.246;2023-04-12T14:53:39;4.18;;;0.70;;
23155;SDS011;11746;50.876;4.246;2023-04-12T14:56:23;4.40;;;0.70;;
23155;SDS011;11746;50.876;4.246;2023-04-12T14:58:52;2.85;;;0.55;;
23155;SDS011;11746;50.876;4.246;2023-04-12T15:01:23;3.20;;;0.70;;
23155;SDS011;11746;50.876;4.246;2023-04-12T15:03:52;2.50;;;0.70;;
23155;SDS011;11746;50.876;4.246;2023-04-12T15:06:18;2.92;;;0.73;;
23155;SDS011;11746;50.876;4.246;2023-04-12T15:08:48;4.55;;;0.63;;
23155;SDS011;11746;50.876;4.246;2023-04-12T15:11:19;1.95;;;0.50;;
23155;SDS011;11746;50.876;4.246;2023-04-12T15:13:50;4.05;;;0.85;;
23155;SDS011;11746;50.876;4.246;2023-04-12T15:16:17;5.07;;;0.90;;
23155;SDS011;11746;50.876;4.246;2023-04-12T15:18:43;3.60;;;0.60;;